sensor_id;sensor_type;location;lat;lon;timestamp;P1;durP1;ratioP1;P2;durP2;ratioP2
22650;SDS011;11492;42.646;23.400;2023-05-17T00:01:40;18.63;;;6.25;;
22650;SDS011;11492;42.646;23.400;2023-05-17T00:04:06;21.25;;;7.07;;
22650;SDS011;11492;42.646;23.400;2023-05-17T00:06:32;28.00;;;6.97;;
22650;SDS011;11492;42.646;23.400;2023-05-17T00:08:58;23.13;;;6.22;;
22650;SDS011;11492;42.646;23.400;2023-05-17T00:11:24;28.45;;;6.53;;
22650;SDS011;11492;42.646;23.400;2023-05-17T00:13:50;22.40;;;6.47;;
22650;SDS011;11492;42.646;23.400;2023-05-17T00:16:15;22.10;;;6.35;;
22650;SDS011;11492;42.646;23.400;2023-05-17T00:18:41;24.23;;;6.38;;
22650;SDS011;11492;42.646;23.400;2023-05-17T00:21:06;23.88;;;5.90;;
22650;SDS011;11492;42.646;23.400;2023-05-17T00:23:31;26.08;;;5.97;;
22650;SDS011;11492;42.646;23.400;2023-05-17T00:25:57;16.67;;;5.70;;
22650;SDS011;11492;42.646;23.400;2023-05-17T00:28:22;22.70;;;6.15;;
22650;SDS011;11492;42.646;23.400;2023-05-17T00:30:48;23.10;;;6.03;;
22650;SDS011;11492;42.646;23.400;2023-05-17T00:33:13;24.77;;;6.10;;
22650;SDS011;11492;42.646;23.400;2023-05-17T00:35:38;23.00;;;6.70;;
22650;SDS011;11492;42.646;23.400;2023-05-17T00:38:04;21.00;;;6.35;;
22650;SDS011;11492;42.646;23.400;2023-05-17T00:40:30;29.60;;;6.07;;
22650;SDS011;11492;42.646;23.400;2023-05-17T00:42:55;25.60;;;6.50;;
22650;SDS011;11492;42.646;23.400;2023-05-17T00:45:21;27.42;;;6.78;;
22650;SDS011;11492;42.646;23.400;2023-05-17T00:47:47;25.02;;;6.60;;
22650;SDS011;11492;42.646;23.400;2023-05-17T00:50:12;26.52;;;6.15;;
22650;SDS011;11492;42.646;23.400;2023-05-17T00:52:38;31.25;;;6.78;;
22650;SDS011;11492;42.646;23.400;2023-05-17T00:55:04;28.73;;;6.70;;
22650;SDS011;11492;42.646;23.400;2023-05-17T00:57:29;21.83;;;6.45;;
22650;SDS011;11492;42.646;23.400;2023-05-17T00:59:56;33.83;;;7.00;;
22650;SDS011;11492;42.646;23.400;2023-05-17T01:02:21;24.45;;;5.82;;
22650;SDS011;11492;42.646;23.400;2023-05-17T01:04:48;22.00;;;5.63;;
22650;SDS011;11492;42.646;23.400;2023-05-17T01:07:14;28.55;;;5.90;;
22650;SDS011;11492;42.646;23.400;2023-05-17T01:09:40;18.23;;;5.30;;
22650;SDS011;11492;42.646;23.400;2023-05-17T01:15:14;28.30;;;5.88;;
22650;SDS011;11492;42.646;23.400;2023-05-17T01:20:45;22.65;;;5.72;;
22650;SDS011;11492;42.646;23.400;2023-05-17T01:23:22;25.40;;;5.60;;
22650;SDS011;11492;42.646;23.400;2023-05-17T01:28:40;21.67;;;5.03;;
22650;SDS011;11492;42.646;23.400;2023-05-17T01:31:09;26.33;;;5.28;;
22650;SDS011;11492;42.646;23.400;2023-05-17T01:33:35;26.33;;;5.43;;
22650;SDS011;11492;42.646;23.400;2023-05-17T01:36:02;16.35;;;5.00;;
22650;SDS011;11492;42.646;23.400;2023-05-17T01:38:27;26.83;;;4.93;;
22650;SDS011;11492;42.646;23.400;2023-05-17T01:43:34;33.63;;;5.72;;
22650;SDS011;11492;42.646;23.400;2023-05-17T01:46:15;20.65;;;5.82;;
22650;SDS011;11492;42.646;23.400;2023-05-17T01:48:51;23.52;;;5.53;;
22650;SDS011;11492;42.646;23.400;2023-05-17T01:51:41;21.35;;;5.72;;
22650;SDS011;11492;42.646;23.400;2023-05-17T01:54:11;23.95;;;6.18;;
22650;SDS011;11492;42.646;23.400;2023-05-17T01:56:42;27.10;;;6.75;;
22650;SDS011;11492;42.646;23.400;2023-05-17T01:59:11;25.52;;;5.93;;
22650;SDS011;11492;42.646;23.400;2023-05-17T02:01:43;25.10;;;6.85;;
22650;SDS011;11492;42.646;23.400;2023-05-17T02:04:11;27.55;;;7.43;;
22650;SDS011;11492;42.646;23.400;2023-05-17T02:06:36;25.02;;;7.32;;
22650;SDS011;11492;42.646;23.400;2023-05-17T02:09:02;26.90;;;7.35;;
22650;SDS011;11492;42.646;23.400;2023-05-17T02:11:27;27.35;;;7.10;;
22650;SDS011;11492;42.646;23.400;2023-05-17T02:13:53;21.00;;;7.63;;
22650;SDS011;11492;42.646;23.400;2023-05-17T02:16:18;21.65;;;6.82;;
22650;SDS011;11492;42.646;23.400;2023-05-17T02:18:44;29.30;;;7.72;;
22650;SDS011;11492;42.646;23.400;2023-05-17T02:21:09;36.30;;;8.15;;
22650;SDS011;11492;42.646;23.400;2023-05-17T02:23:35;24.80;;;8.35;;
22650;SDS011;11492;42.646;23.400;2023-05-17T02:26:01;27.83;;;8.18;;
22650;SDS011;11492;42.646;23.400;2023-05-17T02:28:27;32.78;;;8.40;;
22650;SDS011;11492;42.646;23.400;2023-05-17T02:30:52;30.65;;;8.63;;
22650;SDS011;11492;42.646;23.400;2023-05-17T02:33:18;29.33;;;8.57;;
22650;SDS011;11492;42.646;23.400;2023-05-17T02:35:44;25.42;;;8.55;;
22650;SDS011;11492;42.646;23.400;2023-05-17T02:38:09;29.63;;;9.30;;
22650;SDS011;11492;42.646;23.400;2023-05-17T02:40:34;28.88;;;9.20;;
22650;SDS011;11492;42.646;23.400;2023-05-17T02:43:00;34.38;;;10.15;;
22650;SDS011;11492;42.646;23.400;2023-05-17T02:45:25;31.27;;;10.15;;
22650;SDS011;11492;42.646;23.400;2023-05-17T02:47:51;35.90;;;9.68;;
22650;SDS011;11492;42.646;23.400;2023-05-17T02:50:16;31.15;;;9.88;;
22650;SDS011;11492;42.646;23.400;2023-05-17T02:52:42;35.33;;;11.18;;
22650;SDS011;11492;42.646;23.400;2023-05-17T02:55:07;27.70;;;10.55;;
22650;SDS011;11492;42.646;23.400;2023-05-17T02:57:33;28.98;;;10.35;;
22650;SDS011;11492;42.646;23.400;2023-05-17T02:59:58;29.45;;;10.23;;
22650;SDS011;11492;42.646;23.400;2023-05-17T03:02:24;29.60;;;10.75;;
22650;SDS011;11492;42.646;23.400;2023-05-17T03:04:49;25.60;;;10.10;;
22650;SDS011;11492;42.646;23.400;2023-05-17T03:07:15;39.10;;;11.15;;
22650;SDS011;11492;42.646;23.400;2023-05-17T03:09:40;30.95;;;11.48;;
22650;SDS011;11492;42.646;23.400;2023-05-17T03:12:07;34.88;;;12.77;;
22650;SDS011;11492;42.646;23.400;2023-05-17T03:14:32;29.00;;;12.45;;
22650;SDS011;11492;42.646;23.400;2023-05-17T03:16:58;41.53;;;12.50;;
22650;SDS011;11492;42.646;23.400;2023-05-17T03:19:23;39.13;;;12.77;;
22650;SDS011;11492;42.646;23.400;2023-05-17T03:21:49;37.80;;;13.27;;
22650;SDS011;11492;42.646;23.400;2023-05-17T03:24:14;37.03;;;12.35;;
22650;SDS011;11492;42.646;23.400;2023-05-17T03:26:39;27.85;;;12.43;;
22650;SDS011;11492;42.646;23.400;2023-05-17T03:29:05;28.70;;;11.50;;
22650;SDS011;11492;42.646;23.400;2023-05-17T03:31:30;38.10;;;12.15;;
22650;SDS011;11492;42.646;23.400;2023-05-17T03:33:56;35.47;;;13.10;;
22650;SDS011;11492;42.646;23.400;2023-05-17T03:36:21;34.90;;;12.45;;
22650;SDS011;11492;42.646;23.400;2023-05-17T03:38:47;34.17;;;12.32;;
22650;SDS011;11492;42.646;23.400;2023-05-17T03:41:12;36.42;;;12.88;;
22650;SDS011;11492;42.646;23.400;2023-05-17T03:43:38;32.22;;;13.02;;
22650;SDS011;11492;42.646;23.400;2023-05-17T03:46:03;27.58;;;12.68;;
22650;SDS011;11492;42.646;23.400;2023-05-17T03:48:29;29.75;;;14.60;;
22650;SDS011;11492;42.646;23.400;2023-05-17T03:50:54;34.83;;;16.30;;
22650;SDS011;11492;42.646;23.400;2023-05-17T03:53:20;33.80;;;14.93;;
22650;SDS011;11492;42.646;23.400;2023-05-17T03:55:45;33.10;;;14.48;;
22650;SDS011;11492;42.646;23.400;2023-05-17T03:58:11;42.90;;;15.77;;
22650;SDS011;11492;42.646;23.400;2023-05-17T04:00:36;29.45;;;14.65;;
22650;SDS011;11492;42.646;23.400;2023-05-17T04:03:02;40.47;;;16.38;;
22650;SDS011;11492;42.646;23.400;2023-05-17T04:05:27;34.83;;;16.73;;
22650;SDS011;11492;42.646;23.400;2023-05-17T04:07:53;40.63;;;18.55;;
22650;SDS011;11492;42.646;23.400;2023-05-17T04:10:18;32.30;;;18.35;;
22650;SDS011;11492;42.646;23.400;2023-05-17T04:12:44;35.80;;;18.42;;
22650;SDS011;11492;42.646;23.400;2023-05-17T04:15:09;38.72;;;18.25;;
22650;SDS011;11492;42.646;23.400;2023-05-17T04:17:35;33.85;;;18.65;;
22650;SDS011;11492;42.646;23.400;2023-05-17T04:20:01;35.80;;;17.70;;
22650;SDS011;11492;42.646;23.400;2023-05-17T04:22:26;34.60;;;19.27;;
22650;SDS011;11492;42.646;23.400;2023-05-17T04:24:52;37.47;;;18.02;;
22650;SDS011;11492;42.646;23.400;2023-05-17T04:27:17;34.00;;;17.73;;
22650;SDS011;11492;42.646;23.400;2023-05-17T04:29:42;31.58;;;17.83;;
22650;SDS011;11492;42.646;23.400;2023-05-17T04:32:08;35.58;;;17.20;;
22650;SDS011;11492;42.646;23.400;2023-05-17T04:34:33;61.97;;;35.58;;
22650;SDS011;11492;42.646;23.400;2023-05-17T04:36:59;38.50;;;19.15;;
22650;SDS011;11492;42.646;23.400;2023-05-17T04:39:25;34.35;;;17.33;;
22650;SDS011;11492;42.646;23.400;2023-05-17T04:41:50;37.55;;;18.88;;
22650;SDS011;11492;42.646;23.400;2023-05-17T04:44:16;36.83;;;18.02;;
22650;SDS011;11492;42.646;23.400;2023-05-17T04:46:41;33.15;;;17.65;;
22650;SDS011;11492;42.646;23.400;2023-05-17T04:49:08;41.65;;;18.10;;
22650;SDS011;11492;42.646;23.400;2023-05-17T04:51:33;37.58;;;18.80;;
22650;SDS011;11492;42.646;23.400;2023-05-17T04:53:59;34.38;;;17.75;;
22650;SDS011;11492;42.646;23.400;2023-05-17T04:56:25;42.97;;;17.10;;
22650;SDS011;11492;42.646;23.400;2023-05-17T04:58:51;38.00;;;17.50;;
22650;SDS011;11492;42.646;23.400;2023-05-17T05:01:16;33.30;;;17.02;;
22650;SDS011;11492;42.646;23.400;2023-05-17T05:03:42;32.63;;;16.40;;
22650;SDS011;11492;42.646;23.400;2023-05-17T05:06:07;39.47;;;17.95;;
22650;SDS011;11492;42.646;23.400;2023-05-17T05:08:33;32.15;;;18.02;;
22650;SDS011;11492;42.646;23.400;2023-05-17T05:10:58;30.92;;;16.52;;
22650;SDS011;11492;42.646;23.400;2023-05-17T05:13:24;34.78;;;17.35;;
22650;SDS011;11492;42.646;23.400;2023-05-17T05:15:49;37.42;;;18.35;;
22650;SDS011;11492;42.646;23.400;2023-05-17T05:18:15;36.25;;;17.17;;
22650;SDS011;11492;42.646;23.400;2023-05-17T05:20:40;41.65;;;17.83;;
22650;SDS011;11492;42.646;23.400;2023-05-17T05:23:05;38.92;;;16.67;;
22650;SDS011;11492;42.646;23.400;2023-05-17T05:25:31;37.05;;;17.67;;
22650;SDS011;11492;42.646;23.400;2023-05-17T05:27:57;34.53;;;16.83;;
22650;SDS011;11492;42.646;23.400;2023-05-17T05:30:22;35.25;;;16.15;;
22650;SDS011;11492;42.646;23.400;2023-05-17T05:32:48;34.90;;;15.82;;
22650;SDS011;11492;42.646;23.400;2023-05-17T05:35:14;35.33;;;15.77;;
22650;SDS011;11492;42.646;23.400;2023-05-17T05:37:40;23.88;;;13.43;;
22650;SDS011;11492;42.646;23.400;2023-05-17T05:40:07;39.35;;;15.63;;
22650;SDS011;11492;42.646;23.400;2023-05-17T05:42:33;38.15;;;15.82;;
22650;SDS011;11492;42.646;23.400;2023-05-17T05:44:58;29.23;;;14.10;;
22650;SDS011;11492;42.646;23.400;2023-05-17T05:47:24;38.83;;;14.18;;
22650;SDS011;11492;42.646;23.400;2023-05-17T05:49:49;27.98;;;14.10;;
22650;SDS011;11492;42.646;23.400;2023-05-17T05:52:15;29.33;;;13.77;;
22650;SDS011;11492;42.646;23.400;2023-05-17T05:54:40;28.10;;;14.13;;
22650;SDS011;11492;42.646;23.400;2023-05-17T05:57:06;23.77;;;12.55;;
22650;SDS011;11492;42.646;23.400;2023-05-17T05:59:31;28.50;;;12.88;;
22650;SDS011;11492;42.646;23.400;2023-05-17T06:01:57;31.38;;;12.95;;
22650;SDS011;11492;42.646;23.400;2023-05-17T06:04:22;24.90;;;12.77;;
22650;SDS011;11492;42.646;23.400;2023-05-17T06:06:49;27.25;;;12.82;;
22650;SDS011;11492;42.646;23.400;2023-05-17T06:09:14;32.78;;;12.80;;
22650;SDS011;11492;42.646;23.400;2023-05-17T06:11:40;28.08;;;12.50;;
22650;SDS011;11492;42.646;23.400;2023-05-17T06:14:06;23.50;;;11.95;;
22650;SDS011;11492;42.646;23.400;2023-05-17T06:16:32;33.50;;;12.13;;
22650;SDS011;11492;42.646;23.400;2023-05-17T06:18:58;25.80;;;12.02;;
22650;SDS011;11492;42.646;23.400;2023-05-17T06:21:24;23.60;;;11.82;;
22650;SDS011;11492;42.646;23.400;2023-05-17T06:23:49;28.25;;;11.98;;
22650;SDS011;11492;42.646;23.400;2023-05-17T06:26:15;21.63;;;11.85;;
22650;SDS011;11492;42.646;23.400;2023-05-17T06:28:40;24.05;;;11.90;;
22650;SDS011;11492;42.646;23.400;2023-05-17T06:31:06;22.50;;;11.32;;
22650;SDS011;11492;42.646;23.400;2023-05-17T06:33:31;23.20;;;11.68;;
22650;SDS011;11492;42.646;23.400;2023-05-17T06:35:57;22.80;;;12.25;;
22650;SDS011;11492;42.646;23.400;2023-05-17T06:38:22;28.77;;;12.35;;
22650;SDS011;11492;42.646;23.400;2023-05-17T06:40:54;25.70;;;12.18;;
22650;SDS011;11492;42.646;23.400;2023-05-17T06:43:21;22.73;;;12.70;;
22650;SDS011;11492;42.646;23.400;2023-05-17T06:45:47;25.30;;;12.90;;
22650;SDS011;11492;42.646;23.400;2023-05-17T06:48:12;29.83;;;12.20;;
22650;SDS011;11492;42.646;23.400;2023-05-17T06:50:37;28.17;;;13.23;;
22650;SDS011;11492;42.646;23.400;2023-05-17T06:53:03;26.92;;;12.35;;
22650;SDS011;11492;42.646;23.400;2023-05-17T06:55:29;25.20;;;13.15;;
22650;SDS011;11492;42.646;23.400;2023-05-17T06:57:54;26.55;;;13.90;;
22650;SDS011;11492;42.646;23.400;2023-05-17T07:00:20;33.50;;;13.93;;
22650;SDS011;11492;42.646;23.400;2023-05-17T07:02:45;26.58;;;13.50;;
22650;SDS011;11492;42.646;23.400;2023-05-17T07:05:11;30.02;;;13.10;;
22650;SDS011;11492;42.646;23.400;2023-05-17T07:07:37;23.17;;;12.88;;
22650;SDS011;11492;42.646;23.400;2023-05-17T07:10:03;25.85;;;12.40;;
22650;SDS011;11492;42.646;23.400;2023-05-17T07:12:30;26.13;;;13.15;;
22650;SDS011;11492;42.646;23.400;2023-05-17T07:14:56;27.77;;;13.60;;
22650;SDS011;11492;42.646;23.400;2023-05-17T07:17:21;34.05;;;13.98;;
22650;SDS011;11492;42.646;23.400;2023-05-17T07:19:46;25.83;;;12.60;;
22650;SDS011;11492;42.646;23.400;2023-05-17T07:22:15;40.10;;;13.82;;
22650;SDS011;11492;42.646;23.400;2023-05-17T07:24:42;31.77;;;13.40;;
22650;SDS011;11492;42.646;23.400;2023-05-17T07:27:08;24.73;;;12.98;;
22650;SDS011;11492;42.646;23.400;2023-05-17T07:29:33;28.42;;;13.40;;
22650;SDS011;11492;42.646;23.400;2023-05-17T07:31:58;27.67;;;12.52;;
22650;SDS011;11492;42.646;23.400;2023-05-17T07:34:24;29.48;;;12.13;;
22650;SDS011;11492;42.646;23.400;2023-05-17T07:36:49;24.92;;;12.63;;
22650;SDS011;11492;42.646;23.400;2023-05-17T07:39:15;24.58;;;11.32;;
22650;SDS011;11492;42.646;23.400;2023-05-17T07:41:40;23.58;;;12.93;;
22650;SDS011;11492;42.646;23.400;2023-05-17T07:44:06;24.23;;;12.52;;
22650;SDS011;11492;42.646;23.400;2023-05-17T07:46:31;27.88;;;12.73;;
22650;SDS011;11492;42.646;23.400;2023-05-17T07:48:56;30.23;;;12.60;;
22650;SDS011;11492;42.646;23.400;2023-05-17T07:51:22;32.63;;;13.52;;
22650;SDS011;11492;42.646;23.400;2023-05-17T07:53:47;32.00;;;13.25;;
22650;SDS011;11492;42.646;23.400;2023-05-17T07:56:13;35.78;;;12.65;;
22650;SDS011;11492;42.646;23.400;2023-05-17T07:58:38;31.70;;;12.57;;
22650;SDS011;11492;42.646;23.400;2023-05-17T08:01:03;24.33;;;12.52;;
22650;SDS011;11492;42.646;23.400;2023-05-17T08:03:29;26.10;;;12.10;;
22650;SDS011;11492;42.646;23.400;2023-05-17T08:05:55;26.67;;;12.48;;
22650;SDS011;11492;42.646;23.400;2023-05-17T08:08:20;31.33;;;12.10;;
22650;SDS011;11492;42.646;23.400;2023-05-17T08:10:46;28.23;;;12.38;;
22650;SDS011;11492;42.646;23.400;2023-05-17T08:13:11;26.35;;;11.35;;
22650;SDS011;11492;42.646;23.400;2023-05-17T08:15:36;25.10;;;11.73;;
22650;SDS011;11492;42.646;23.400;2023-05-17T08:18:02;24.75;;;12.00;;
22650;SDS011;11492;42.646;23.400;2023-05-17T08:20:27;28.17;;;11.75;;
22650;SDS011;11492;42.646;23.400;2023-05-17T08:22:53;28.30;;;11.50;;
22650;SDS011;11492;42.646;23.400;2023-05-17T08:25:19;33.88;;;11.23;;
22650;SDS011;11492;42.646;23.400;2023-05-17T08:27:45;26.13;;;11.48;;
22650;SDS011;11492;42.646;23.400;2023-05-17T08:30:10;28.67;;;12.10;;
22650;SDS011;11492;42.646;23.400;2023-05-17T08:32:36;28.25;;;13.63;;
22650;SDS011;11492;42.646;23.400;2023-05-17T08:35:01;27.48;;;12.07;;
22650;SDS011;11492;42.646;23.400;2023-05-17T08:37:28;25.88;;;11.25;;
22650;SDS011;11492;42.646;23.400;2023-05-17T08:39:53;26.17;;;11.88;;
22650;SDS011;11492;42.646;23.400;2023-05-17T08:42:20;26.67;;;11.77;;
22650;SDS011;11492;42.646;23.400;2023-05-17T08:44:49;33.72;;;12.52;;
22650;SDS011;11492;42.646;23.400;2023-05-17T08:47:15;30.30;;;13.93;;
22650;SDS011;11492;42.646;23.400;2023-05-17T08:49:53;35.45;;;14.80;;
22650;SDS011;11492;42.646;23.400;2023-05-17T08:52:21;32.92;;;14.57;;
22650;SDS011;11492;42.646;23.400;2023-05-17T08:54:47;34.90;;;14.57;;
22650;SDS011;11492;42.646;23.400;2023-05-17T08:57:13;37.92;;;15.80;;
22650;SDS011;11492;42.646;23.400;2023-05-17T08:59:41;37.83;;;15.43;;
22650;SDS011;11492;42.646;23.400;2023-05-17T09:02:08;35.00;;;15.00;;
22650;SDS011;11492;42.646;23.400;2023-05-17T09:04:34;37.92;;;13.65;;
22650;SDS011;11492;42.646;23.400;2023-05-17T09:07:00;34.05;;;13.70;;
22650;SDS011;11492;42.646;23.400;2023-05-17T09:09:25;25.75;;;12.88;;
22650;SDS011;11492;42.646;23.400;2023-05-17T09:11:51;34.25;;;13.57;;
22650;SDS011;11492;42.646;23.400;2023-05-17T09:14:17;29.95;;;12.95;;
22650;SDS011;11492;42.646;23.400;2023-05-17T09:16:42;27.30;;;13.13;;
22650;SDS011;11492;42.646;23.400;2023-05-17T09:19:08;30.60;;;12.70;;
22650;SDS011;11492;42.646;23.400;2023-05-17T09:21:44;23.70;;;12.10;;
22650;SDS011;11492;42.646;23.400;2023-05-17T09:24:12;33.97;;;13.05;;
22650;SDS011;11492;42.646;23.400;2023-05-17T09:26:39;33.50;;;12.90;;
22650;SDS011;11492;42.646;23.400;2023-05-17T09:29:09;33.67;;;12.57;;
22650;SDS011;11492;42.646;23.400;2023-05-17T09:31:36;24.33;;;11.35;;
22650;SDS011;11492;42.646;23.400;2023-05-17T09:34:01;28.17;;;11.82;;
22650;SDS011;11492;42.646;23.400;2023-05-17T09:36:27;29.60;;;11.60;;
22650;SDS011;11492;42.646;23.400;2023-05-17T09:38:56;27.70;;;10.82;;
22650;SDS011;11492;42.646;23.400;2023-05-17T09:41:33;21.83;;;9.52;;
22650;SDS011;11492;42.646;23.400;2023-05-17T09:44:09;21.73;;;9.52;;
22650;SDS011;11492;42.646;23.400;2023-05-17T09:46:36;31.58;;;9.57;;
22650;SDS011;11492;42.646;23.400;2023-05-17T09:49:04;27.15;;;8.65;;
22650;SDS011;11492;42.646;23.400;2023-05-17T09:51:40;24.42;;;9.07;;
22650;SDS011;11492;42.646;23.400;2023-05-17T09:54:07;25.65;;;8.82;;
22650;SDS011;11492;42.646;23.400;2023-05-17T09:56:34;20.48;;;8.25;;
22650;SDS011;11492;42.646;23.400;2023-05-17T09:59:00;24.70;;;8.80;;
22650;SDS011;11492;42.646;23.400;2023-05-17T10:01:27;24.30;;;9.18;;
22650;SDS011;11492;42.646;23.400;2023-05-17T10:03:53;23.02;;;8.60;;
22650;SDS011;11492;42.646;23.400;2023-05-17T10:06:22;36.30;;;11.60;;
22650;SDS011;11492;42.646;23.400;2023-05-17T10:08:51;27.98;;;10.65;;
22650;SDS011;11492;42.646;23.400;2023-05-17T10:11:26;21.55;;;8.93;;
22650;SDS011;11492;42.646;23.400;2023-05-17T10:14:10;25.20;;;10.02;;
22650;SDS011;11492;42.646;23.400;2023-05-17T10:16:43;29.85;;;10.02;;
22650;SDS011;11492;42.646;23.400;2023-05-17T10:19:12;27.95;;;10.35;;
22650;SDS011;11492;42.646;23.400;2023-05-17T10:21:38;27.70;;;10.40;;
22650;SDS011;11492;42.646;23.400;2023-05-17T10:24:05;26.05;;;9.85;;
22650;SDS011;11492;42.646;23.400;2023-05-17T10:26:31;32.90;;;14.77;;
22650;SDS011;11492;42.646;23.400;2023-05-17T10:28:58;29.80;;;10.95;;
22650;SDS011;11492;42.646;23.400;2023-05-17T10:31:29;23.60;;;9.73;;
22650;SDS011;11492;42.646;23.400;2023-05-17T10:33:57;23.58;;;10.25;;
22650;SDS011;11492;42.646;23.400;2023-05-17T10:36:24;24.98;;;9.80;;
22650;SDS011;11492;42.646;23.400;2023-05-17T10:38:50;24.50;;;9.40;;
22650;SDS011;11492;42.646;23.400;2023-05-17T10:41:17;29.63;;;10.55;;
22650;SDS011;11492;42.646;23.400;2023-05-17T10:43:45;25.02;;;8.98;;
22650;SDS011;11492;42.646;23.400;2023-05-17T10:46:16;23.23;;;8.77;;
22650;SDS011;11492;42.646;23.400;2023-05-17T10:48:46;29.75;;;8.98;;
22650;SDS011;11492;42.646;23.400;2023-05-17T10:51:13;23.10;;;8.57;;
22650;SDS011;11492;42.646;23.400;2023-05-17T10:56:31;24.35;;;8.50;;
22650;SDS011;11492;42.646;23.400;2023-05-17T11:01:49;26.23;;;7.68;;
22650;SDS011;11492;42.646;23.400;2023-05-17T11:04:58;21.77;;;8.25;;
22650;SDS011;11492;42.646;23.400;2023-05-17T11:09:48;30.38;;;9.25;;
22650;SDS011;11492;42.646;23.400;2023-05-17T11:15:12;24.15;;;10.00;;
22650;SDS011;11492;42.646;23.400;2023-05-17T11:20:07;28.70;;;10.77;;
22650;SDS011;11492;42.646;23.400;2023-05-17T11:22:40;27.42;;;10.93;;
22650;SDS011;11492;42.646;23.400;2023-05-17T11:25:10;30.95;;;9.63;;
22650;SDS011;11492;42.646;23.400;2023-05-17T11:27:38;27.30;;;10.23;;
22650;SDS011;11492;42.646;23.400;2023-05-17T11:32:49;34.53;;;12.02;;
22650;SDS011;11492;42.646;23.400;2023-05-17T11:35:16;36.33;;;11.20;;
22650;SDS011;11492;42.646;23.400;2023-05-17T11:37:43;34.30;;;11.18;;
22650;SDS011;11492;42.646;23.400;2023-05-17T11:40:09;26.25;;;10.18;;
22650;SDS011;11492;42.646;23.400;2023-05-17T11:42:37;23.50;;;9.82;;
22650;SDS011;11492;42.646;23.400;2023-05-17T11:45:03;26.88;;;10.25;;
22650;SDS011;11492;42.646;23.400;2023-05-17T11:47:30;32.78;;;9.27;;
22650;SDS011;11492;42.646;23.400;2023-05-17T11:49:59;24.15;;;8.43;;
22650;SDS011;11492;42.646;23.400;2023-05-17T11:52:28;29.52;;;8.93;;
22650;SDS011;11492;42.646;23.400;2023-05-17T11:54:55;26.70;;;9.50;;
22650;SDS011;11492;42.646;23.400;2023-05-17T11:57:27;27.55;;;9.02;;
22650;SDS011;11492;42.646;23.400;2023-05-17T12:00:00;33.45;;;9.60;;
22650;SDS011;11492;42.646;23.400;2023-05-17T12:02:29;29.58;;;9.75;;
22650;SDS011;11492;42.646;23.400;2023-05-17T12:04:55;31.63;;;8.95;;
22650;SDS011;11492;42.646;23.400;2023-05-17T12:07:21;24.77;;;8.38;;
22650;SDS011;11492;42.646;23.400;2023-05-17T12:09:47;30.15;;;8.98;;
22650;SDS011;11492;42.646;23.400;2023-05-17T12:12:14;27.60;;;8.98;;
22650;SDS011;11492;42.646;23.400;2023-05-17T12:14:43;27.45;;;8.27;;
22650;SDS011;11492;42.646;23.400;2023-05-17T12:17:09;24.70;;;8.50;;
22650;SDS011;11492;42.646;23.400;2023-05-17T12:19:41;26.17;;;9.13;;
22650;SDS011;11492;42.646;23.400;2023-05-17T12:22:07;23.75;;;8.90;;
22650;SDS011;11492;42.646;23.400;2023-05-17T12:24:37;23.88;;;7.95;;
22650;SDS011;11492;42.646;23.400;2023-05-17T12:27:03;22.13;;;8.73;;
22650;SDS011;11492;42.646;23.400;2023-05-17T12:29:28;25.08;;;8.63;;
22650;SDS011;11492;42.646;23.400;2023-05-17T12:31:54;24.50;;;8.65;;
22650;SDS011;11492;42.646;23.400;2023-05-17T12:34:19;27.70;;;9.50;;
22650;SDS011;11492;42.646;23.400;2023-05-17T12:36:47;25.40;;;9.02;;
22650;SDS011;11492;42.646;23.400;2023-05-17T12:39:13;26.23;;;8.90;;
22650;SDS011;11492;42.646;23.400;2023-05-17T12:41:39;37.20;;;9.43;;
22650;SDS011;11492;42.646;23.400;2023-05-17T12:44:06;40.13;;;9.40;;
22650;SDS011;11492;42.646;23.400;2023-05-17T12:46:32;29.60;;;8.77;;
22650;SDS011;11492;42.646;23.400;2023-05-17T12:49:04;21.30;;;8.43;;
22650;SDS011;11492;42.646;23.400;2023-05-17T12:51:44;25.27;;;8.45;;
22650;SDS011;11492;42.646;23.400;2023-05-17T12:56:48;25.48;;;9.00;;
22650;SDS011;11492;42.646;23.400;2023-05-17T12:59:14;23.58;;;8.20;;
22650;SDS011;11492;42.646;23.400;2023-05-17T13:01:42;22.85;;;8.43;;
22650;SDS011;11492;42.646;23.400;2023-05-17T13:04:11;26.20;;;8.90;;
22650;SDS011;11492;42.646;23.400;2023-05-17T13:06:44;21.92;;;8.55;;
22650;SDS011;11492;42.646;23.400;2023-05-17T13:09:10;24.55;;;8.10;;
22650;SDS011;11492;42.646;23.400;2023-05-17T13:11:36;29.10;;;8.65;;
22650;SDS011;11492;42.646;23.400;2023-05-17T13:14:08;21.73;;;7.88;;
22650;SDS011;11492;42.646;23.400;2023-05-17T13:16:37;21.52;;;8.05;;
22650;SDS011;11492;42.646;23.400;2023-05-17T13:19:13;13.50;;;7.15;;
22650;SDS011;11492;42.646;23.400;2023-05-17T13:21:38;24.83;;;7.85;;
22650;SDS011;11492;42.646;23.400;2023-05-17T13:24:04;23.60;;;7.57;;
22650;SDS011;11492;42.646;23.400;2023-05-17T13:26:30;21.50;;;8.15;;
22650;SDS011;11492;42.646;23.400;2023-05-17T13:28:55;19.00;;;7.60;;
22650;SDS011;11492;42.646;23.400;2023-05-17T13:31:21;25.20;;;7.47;;
22650;SDS011;11492;42.646;23.400;2023-05-17T13:33:47;24.10;;;8.18;;
22650;SDS011;11492;42.646;23.400;2023-05-17T13:36:14;20.77;;;7.15;;
22650;SDS011;11492;42.646;23.400;2023-05-17T13:38:40;20.75;;;6.63;;
22650;SDS011;11492;42.646;23.400;2023-05-17T13:41:05;21.90;;;6.80;;
22650;SDS011;11492;42.646;23.400;2023-05-17T13:43:33;17.92;;;6.45;;
22650;SDS011;11492;42.646;23.400;2023-05-17T13:46:01;17.30;;;6.22;;
22650;SDS011;11492;42.646;23.400;2023-05-17T13:48:27;17.42;;;6.47;;
22650;SDS011;11492;42.646;23.400;2023-05-17T13:50:53;21.60;;;6.57;;
22650;SDS011;11492;42.646;23.400;2023-05-17T13:53:19;19.02;;;6.65;;
22650;SDS011;11492;42.646;23.400;2023-05-17T13:55:45;17.60;;;6.22;;
22650;SDS011;11492;42.646;23.400;2023-05-17T13:58:11;15.30;;;5.68;;
22650;SDS011;11492;42.646;23.400;2023-05-17T14:00:37;19.02;;;5.75;;
22650;SDS011;11492;42.646;23.400;2023-05-17T14:03:06;22.10;;;6.22;;
22650;SDS011;11492;42.646;23.400;2023-05-17T14:05:32;21.95;;;6.68;;
22650;SDS011;11492;42.646;23.400;2023-05-17T14:08:00;16.00;;;6.00;;
22650;SDS011;11492;42.646;23.400;2023-05-17T14:10:26;19.00;;;5.53;;
22650;SDS011;11492;42.646;23.400;2023-05-17T14:12:51;18.20;;;5.70;;
22650;SDS011;11492;42.646;23.400;2023-05-17T14:15:17;15.18;;;5.07;;
22650;SDS011;11492;42.646;23.400;2023-05-17T14:17:42;22.58;;;5.85;;
22650;SDS011;11492;42.646;23.400;2023-05-17T14:20:08;21.00;;;5.75;;
22650;SDS011;11492;42.646;23.400;2023-05-17T14:22:34;13.05;;;5.53;;
22650;SDS011;11492;42.646;23.400;2023-05-17T14:24:59;16.15;;;5.35;;
22650;SDS011;11492;42.646;23.400;2023-05-17T14:27:25;16.23;;;4.88;;
22650;SDS011;11492;42.646;23.400;2023-05-17T14:29:50;14.13;;;4.63;;
22650;SDS011;11492;42.646;23.400;2023-05-17T14:32:16;16.05;;;5.13;;
22650;SDS011;11492;42.646;23.400;2023-05-17T14:34:41;17.67;;;5.43;;
22650;SDS011;11492;42.646;23.400;2023-05-17T14:37:07;14.35;;;4.95;;
22650;SDS011;11492;42.646;23.400;2023-05-17T14:39:32;13.38;;;4.68;;
22650;SDS011;11492;42.646;23.400;2023-05-17T14:41:58;12.38;;;4.97;;